Terminal Aerodrome Forecast
Issued by NWS

Current Version | Previous Version | Graphics & Text | Print | Product List | Glossary On
Versions: 1 2 3 4 5 6 7 8 9 10 11 12 13 14 15 16 17 18 19 20 21 22 23 24 25
244
FTUS41 KRLX 102320
TAFCKB
TAF
KCKB 102320Z 1100/1124 26009KT 3SM -SHSN OVC020
     FM110600 26010G16KT P6SM OVC020
     FM111200 27009KT P6SM BKN025
     FM112000 28009KT P6SM BKN035
     FM112300 28007KT P6SM SCT040=

USA.gov is the U.S. government's official web portal to all federal, state and local government web resources and services.